Time;durP1;ratioP1;P1;durP2;ratioP2;P2;SDS_P1;SDS_P2;PMS_P1;PMS_P2;Temp;Humidity;BMP_temperature;BMP_pressure;BME280_temperature;BME280_humidity;BME280_pressure;Samples;Min_cycle;Max_cycle;Signal;HPM_P1;HPM_P2
2022/03/10 00:01:43;;;;;;;13.93;11.80;;;;;;;2.27;55.54;101741.72;4996224;27;20432;-69
2022/03/10 00:04:09;;;;;;;15.68;11.48;;;;;;;2.34;55.65;101744.91;5035006;27;20044;-69
2022/03/10 00:06:34;;;;;;;16.55;12.13;;;;;;;2.29;55.64;101746.88;4980911;27;20033;-69
2022/03/10 00:08:59;;;;;;;16.17;11.80;;;;;;;2.20;55.92;101750.66;5030127;27;20059;-70
2022/03/10 00:11:25;;;;;;;13.85;11.55;;;;;;;2.28;55.82;101760.84;4997505;27;20545;-69
2022/03/10 00:13:50;;;;;;;14.15;11.73;;;;;;;2.26;56.25;101752.19;5035312;27;20032;-70
2022/03/10 00:16:16;;;;;;;13.23;10.73;;;;;;;2.12;56.47;101752.75;4983943;27;20025;-70
2022/03/10 00:18:41;;;;;;;14.35;11.35;;;;;;;2.08;56.57;101757.22;4997559;27;20037;-70
2022/03/10 00:21:06;;;;;;;15.75;11.40;;;;;;;2.11;56.51;101762.31;5000856;27;20024;-69
2022/03/10 00:23:32;;;;;;;13.55;11.20;;;;;;;2.05;57.01;101757.31;5016937;27;20033;-70
2022/03/10 00:25:57;;;;;;;12.18;10.88;;;;;;;1.98;57.48;101756.69;5039410;27;20044;-70
2022/03/10 00:28:23;;;;;;;15.05;11.68;;;;;;;2.04;56.94;101756.47;4996707;28;20033;-70
2022/03/10 00:30:48;;;;;;;15.52;11.35;;;;;;;1.91;57.23;101750.00;5040678;27;20020;-71
2022/03/10 00:33:15;;;;;;;16.65;11.40;;;;;;;1.92;57.35;101759.53;5000870;28;20529;-69
2022/03/10 00:35:40;;;;;;;14.02;11.32;;;;;;;1.85;57.48;101752.84;4982064;27;20025;-70
2022/03/10 00:38:06;;;;;;;13.77;11.45;;;;;;;1.79;58.07;101750.44;4999997;27;21271;-70
2022/03/10 00:40:31;;;;;;;15.95;11.38;;;;;;;1.81;58.63;101749.47;4968923;27;20030;-70
2022/03/10 00:42:57;;;;;;;15.45;12.30;;;;;;;1.66;58.94;101745.66;5000235;27;20017;-70
2022/03/10 00:45:22;;;;;;;13.95;11.73;;;;;;;1.98;57.98;101756.69;4969278;27;20021;-70
2022/03/10 00:47:48;;;;;;;14.88;12.38;;;;;;;1.88;58.04;101760.56;4999635;27;20889;-70
2022/03/10 00:50:13;;;;;;;15.43;11.63;;;;;;;2.01;57.61;101760.97;5003821;27;20033;-68
2022/03/10 00:52:40;;;;;;;16.02;10.98;;;;;;;1.91;57.19;101757.00;5003242;27;20469;-69
2022/03/10 00:55:06;;;;;;;14.32;11.38;;;;;;;1.81;57.31;101761.69;4999061;27;20144;-70
2022/03/10 00:57:32;;;;;;;14.60;12.13;;;;;;;1.86;57.10;101770.19;4999810;27;20489;-70
2022/03/10 00:59:57;;;;;;;16.83;11.60;;;;;;;1.83;56.69;101765.94;5000717;27;20492;-70
2022/03/10 01:02:22;;;;;;;17.08;12.13;;;;;;;1.78;57.03;101769.63;5000454;27;20094;-70
2022/03/10 01:04:48;;;;;;;13.70;11.57;;;;;;;1.79;57.17;101772.19;4999558;27;20041;-71
2022/03/10 01:07:13;;;;;;;15.00;11.13;;;;;;;1.79;56.93;101769.56;4980642;27;20048;-70
2022/03/10 01:09:39;;;;;;;15.00;11.73;;;;;;;1.77;57.61;101767.91;4981591;27;21535;-70
2022/03/10 01:12:04;;;;;;;14.73;11.80;;;;;;;1.81;57.34;101772.13;5000557;27;20189;-70
2022/03/10 01:14:29;;;;;;;16.23;11.85;;;;;;;1.76;57.63;101768.81;4969423;27;20013;-69
2022/03/10 01:16:56;;;;;;;15.07;12.15;;;;;;;1.71;57.18;101769.00;5003007;27;20042;-72
2022/03/10 01:19:22;;;;;;;14.88;12.20;;;;;;;1.66;57.51;101769.13;4999674;27;20437;-70
2022/03/10 01:21:48;;;;;;;17.08;12.15;;;;;;;1.61;57.72;101764.97;5002811;27;21130;-70
2022/03/10 01:24:13;;;;;;;16.23;11.85;;;;;;;1.66;57.42;101756.09;5003136;27;20014;-70
2022/03/10 01:26:38;;;;;;;19.58;12.82;;;;;;;1.67;57.60;101757.78;5004664;27;21331;-69
2022/03/10 01:29:04;;;;;;;16.65;12.02;;;;;;;1.68;57.56;101762.13;4996488;27;20048;-70
2022/03/10 01:31:29;;;;;;;17.30;12.50;;;;;;;1.68;57.81;101769.09;5004693;27;21111;-70
2022/03/10 01:33:55;;;;;;;14.85;12.10;;;;;;;1.71;57.19;101759.41;4983967;27;20049;-70
2022/03/10 01:36:20;;;;;;;17.40;12.50;;;;;;;1.69;57.62;101758.59;4986458;27;20950;-70
2022/03/10 01:38:45;;;;;;;15.43;12.05;;;;;;;1.58;58.06;101750.31;4996376;27;20313;-70
2022/03/10 01:41:11;;;;;;;16.52;12.25;;;;;;;1.45;58.58;101756.84;5003007;27;20102;-69
2022/03/10 01:44:01;;;;;;;14.45;12.32;;;;;;;1.49;58.46;101758.44;4998833;27;20090;-69
2022/03/10 01:46:27;;;;;;;13.68;11.93;;;;;;;1.43;58.91;101753.44;4999113;27;20052;-70
2022/03/10 01:48:53;;;;;;;14.90;12.18;;;;;;;1.42;58.79;101743.91;4997954;27;20034;-69
2022/03/10 01:51:18;;;;;;;16.90;12.43;;;;;;;1.41;58.87;101744.81;5000743;27;20500;-70
2022/03/10 01:53:44;;;;;;;15.35;12.27;;;;;;;1.50;59.05;101745.34;4983704;27;20882;-70
2022/03/10 01:56:10;;;;;;;14.80;11.88;;;;;;;1.41;59.69;101743.06;4973113;28;20041;-70
2022/03/10 01:58:36;;;;;;;17.17;12.23;;;;;;;1.46;59.83;101742.91;4944942;28;20026;-69
2022/03/10 02:01:02;;;;;;;14.38;11.77;;;;;;;1.65;58.89;101743.97;4960330;28;20083;-70
2022/03/10 02:03:27;;;;;;;15.60;12.55;;;;;;;1.68;58.82;101750.84;4966283;28;20498;-70
2022/03/10 02:05:53;;;;;;;14.60;12.63;;;;;;;1.70;58.54;101744.63;4929335;28;20042;-69
2022/03/10 02:11:02;;;;;;;;;;;;;;;1.67;58.08;101746.53;4978128;28;20106;-69
2022/03/10 02:13:28;;;;;;;16.67;12.17;;;;;;;1.59;58.38;101746.78;4963458;28;19924;-71
2022/03/10 02:18:37;;;;;;;14.30;12.30;;;;;;;1.23;58.89;101735.84;4975476;28;20917;-71
2022/03/10 02:21:02;;;;;;;17.23;12.65;;;;;;;1.25;58.96;101740.13;4978362;28;20042;-70
2022/03/10 02:23:28;;;;;;;16.23;12.50;;;;;;;1.29;58.96;101741.72;4928555;28;20274;-69
2022/03/10 02:25:54;;;;;;;16.83;12.70;;;;;;;1.33;59.18;101743.31;4979125;28;20069;-70
2022/03/10 02:28:19;;;;;;;14.40;11.82;;;;;;;1.44;58.76;101744.69;4956877;28;20836;-70
2022/03/10 02:30:44;;;;;;;16.83;12.35;;;;;;;1.32;59.11;101741.59;5002005;27;20036;-71
2022/03/10 02:33:10;;;;;;;14.27;11.45;;;;;;;1.32;59.28;101744.22;5020407;27;20483;-70
2022/03/10 02:35:35;;;;;;;16.75;12.57;;;;;;;1.18;59.48;101738.63;4998558;27;20037;-70
2022/03/10 02:38:01;;;;;;;14.95;12.57;;;;;;;1.19;59.66;101741.19;4999852;27;21048;-70
2022/03/10 02:40:26;;;;;;;14.45;12.10;;;;;;;1.02;60.16;101751.31;4995152;27;21171;-71
2022/03/10 02:42:52;;;;;;;16.02;12.77;;;;;;;0.94;60.26;101745.50;5022605;27;20025;-71
2022/03/10 02:45:17;;;;;;;17.95;12.85;;;;;;;0.95;60.35;101747.22;5002070;27;20087;-71
2022/03/10 02:47:42;;;;;;;16.30;13.27;;;;;;;0.91;60.28;101743.84;5016824;27;20060;-71
2022/03/10 02:50:09;;;;;;;19.30;12.93;;;;;;;0.88;60.44;101741.34;5001928;27;20097;-70
2022/03/10 02:52:37;;;;;;;18.45;13.40;;;;;;;0.91;60.04;101736.03;5015318;27;20029;-70
2022/03/10 02:55:04;;;;;;;18.02;13.98;;;;;;;0.89;59.60;101737.84;5016732;27;21417;-69
2022/03/10 02:57:31;;;;;;;19.13;13.95;;;;;;;0.83;59.62;101743.25;5012072;27;20033;-70
2022/03/10 02:59:57;;;;;;;16.30;13.35;;;;;;;0.78;59.88;101739.94;5019874;27;20468;-71
2022/03/10 03:02:23;;;;;;;16.02;13.35;;;;;;;0.70;60.45;101740.19;4998574;27;20025;-69
2022/03/10 03:04:48;;;;;;;20.60;13.85;;;;;;;0.64;60.51;101733.41;5020878;27;20197;-69
2022/03/10 03:07:14;;;;;;;15.68;13.52;;;;;;;0.64;60.33;101732.56;5016869;27;21098;-69
2022/03/10 03:09:39;;;;;;;20.27;13.88;;;;;;;0.55;60.53;101736.31;5016282;27;20086;-70
2022/03/10 03:12:04;;;;;;;18.95;13.73;;;;;;;0.61;60.73;101738.72;5002444;27;20337;-69
2022/03/10 03:14:30;;;;;;;19.50;13.65;;;;;;;0.68;60.49;101740.22;5014992;27;20025;-69
2022/03/10 03:16:56;;;;;;;17.48;13.15;;;;;;;0.59;60.55;101735.31;5018600;27;20117;-69
2022/03/10 03:19:21;;;;;;;17.70;13.75;;;;;;;0.61;60.62;101728.31;5012967;27;20029;-69
2022/03/10 03:21:47;;;;;;;17.52;13.27;;;;;;;0.59;60.50;101735.31;5017104;27;21150;-70
2022/03/10 03:24:12;;;;;;;16.83;13.55;;;;;;;0.49;61.13;101739.09;4999769;27;20124;-69
2022/03/10 03:26:38;;;;;;;21.75;13.07;;;;;;;0.49;60.93;101733.88;5019533;27;20120;-71
2022/03/10 03:29:03;;;;;;;15.75;13.18;;;;;;;0.49;61.41;101739.09;4997637;27;20391;-72
2022/03/10 03:31:28;;;;;;;17.80;13.35;;;;;;;0.50;61.30;101743.41;5017110;27;20028;-69
2022/03/10 03:33:54;;;;;;;15.48;12.82;;;;;;;0.54;61.57;101742.41;4987483;27;20773;-71
2022/03/10 03:36:19;;;;;;;18.63;13.45;;;;;;;0.43;62.05;101739.28;5016573;27;20032;-71
2022/03/10 03:38:44;;;;;;;20.02;13.43;;;;;;;0.38;62.06;101736.84;5015256;27;20500;-71
2022/03/10 03:41:10;;;;;;;16.08;12.90;;;;;;;0.34;61.95;101741.28;4981334;27;20040;-69
2022/03/10 03:43:35;;;;;;;14.85;12.80;;;;;;;0.32;62.30;101737.00;5018881;27;21002;-71
2022/03/10 03:46:01;;;;;;;17.10;12.90;;;;;;;0.30;62.48;101734.44;4977065;27;20041;-72
2022/03/10 03:48:26;;;;;;;15.50;13.02;;;;;;;0.30;62.21;101734.44;5015330;27;20024;-72
2022/03/10 03:50:51;;;;;;;15.75;12.90;;;;;;;0.30;62.54;101736.22;5001610;27;21241;-69
2022/03/10 03:53:17;;;;;;;18.27;13.38;;;;;;;0.33;62.29;101738.72;5017549;27;20029;-70
2022/03/10 03:55:42;;;;;;;15.95;12.57;;;;;;;0.27;62.79;101750.16;4985919;27;20069;-72
2022/03/10 03:58:08;;;;;;;16.38;12.93;;;;;;;0.26;62.71;101738.03;5012503;27;20628;-72
2022/03/10 04:00:34;;;;;;;17.17;13.65;;;;;;;0.30;62.60;101744.03;4985259;27;20408;-70
2022/03/10 04:03:08;;;;;;;17.67;13.27;;;;;;;0.22;62.86;101748.59;4999513;27;20121;-69
2022/03/10 04:05:34;;;;;;;16.23;12.75;;;;;;;0.41;62.59;101747.16;5015067;27;20040;-70
2022/03/10 04:07:59;;;;;;;17.38;13.50;;;;;;;0.46;62.23;101757.41;4972141;27;21056;-69
2022/03/10 04:10:25;;;;;;;15.15;12.20;;;;;;;0.52;62.11;101752.00;5014480;27;21086;-71
2022/03/10 04:12:50;;;;;;;15.63;12.30;;;;;;;0.39;62.97;101743.72;5022536;27;20110;-71
2022/03/10 04:15:16;;;;;;;16.83;12.88;;;;;;;0.28;63.29;101749.28;5016595;27;20021;-71
2022/03/10 04:17:42;;;;;;;17.77;12.63;;;;;;;0.25;63.40;101751.09;5012853;28;20055;-71
2022/03/10 04:20:12;;;;;;;14.77;12.57;;;;;;;0.48;63.17;101763.41;5000557;27;20988;-70
2022/03/10 04:22:38;;;;;;;16.20;12.20;;;;;;;0.57;62.28;101760.56;5019044;27;20163;-70
2022/03/10 04:25:05;;;;;;;15.20;13.02;;;;;;;0.41;62.85;101772.31;5017153;28;20040;-69
2022/03/10 04:27:30;;;;;;;15.63;12.82;;;;;;;0.23;63.46;101752.91;4994966;28;20080;-71
2022/03/10 04:29:56;;;;;;;14.70;12.43;;;;;;;0.17;63.64;101764.34;4999765;28;20771;-70
2022/03/10 04:32:21;;;;;;;16.10;12.90;;;;;;;0.10;63.70;101760.19;4998464;28;20113;-70
2022/03/10 04:34:46;;;;;;;16.00;12.35;;;;;;;0.23;63.47;101769.38;5002168;28;20240;-70
2022/03/10 04:37:12;;;;;;;19.80;12.60;;;;;;;0.17;63.04;101767.81;4981995;28;20025;-70
2022/03/10 04:39:37;;;;;;;16.27;12.65;;;;;;;0.01;63.84;101778.69;5014789;28;20076;-70
2022/03/10 04:42:02;;;;;;;16.17;12.70;;;;;;;-0.01;64.21;101776.97;5018269;27;20044;-70
2022/03/10 04:44:28;;;;;;;15.52;12.75;;;;;;;-0.03;64.34;101784.00;5017961;27;20175;-70
2022/03/10 04:46:53;;;;;;;16.27;12.18;;;;;;;-0.03;63.90;101784.00;5018509;27;20811;-70
2022/03/10 04:49:19;;;;;;;17.13;12.55;;;;;;;-0.02;63.77;101780.47;5011144;27;20171;-70
2022/03/10 04:51:44;;;;;;;15.35;12.10;;;;;;;-0.03;63.61;101785.72;5019839;27;20961;-69
2022/03/10 04:54:09;;;;;;;16.33;12.35;;;;;;;-0.07;63.67;101779.78;5016000;28;20041;-69
2022/03/10 04:56:35;;;;;;;16.13;12.90;;;;;;;-0.14;63.41;101772.16;5020547;27;20024;-70
2022/03/10 04:59:00;;;;;;;15.35;12.45;;;;;;;-0.14;63.33;101767.81;4975849;28;20097;-70
2022/03/10 05:01:25;;;;;;;16.83;12.60;;;;;;;-0.10;63.31;101778.97;5017102;27;20025;-70
2022/03/10 05:03:51;;;;;;;15.43;12.18;;;;;;;-0.13;63.53;101777.31;5014684;28;20040;-70
2022/03/10 05:06:16;;;;;;;18.00;12.77;;;;;;;-0.13;63.38;101776.47;5017098;27;20167;-70
2022/03/10 05:08:42;;;;;;;19.98;13.52;;;;;;;0.04;63.19;101769.03;4969634;28;20561;-69
2022/03/10 05:11:07;;;;;;;14.95;12.25;;;;;;;0.05;63.37;101788.13;5014871;27;20090;-70
2022/03/10 05:13:33;;;;;;;13.70;12.05;;;;;;;-0.03;63.74;101790.94;5017602;28;20044;-72
2022/03/10 05:15:58;;;;;;;16.23;12.25;;;;;;;-0.18;64.06;101787.00;4990087;28;20429;-69
2022/03/10 05:18:23;;;;;;;14.05;12.15;;;;;;;-0.19;64.40;101788.75;4990183;28;20619;-70
2022/03/10 05:20:49;;;;;;;16.00;13.45;;;;;;;-0.17;64.35;101793.91;4995505;27;20037;-70
2022/03/10 05:23:14;;;;;;;15.82;12.68;;;;;;;-0.22;64.01;101793.19;5022146;27;20053;-70
2022/03/10 05:25:40;;;;;;;17.38;12.55;;;;;;;-0.23;64.21;101791.47;5018948;27;20217;-71
2022/03/10 05:28:07;;;;;;;17.10;12.80;;;;;;;-0.21;64.03;101792.31;5012996;27;20048;-70
2022/03/10 05:30:33;;;;;;;15.85;12.75;;;;;;;-0.20;64.21;101791.38;5019959;27;20039;-71
2022/03/10 05:32:58;;;;;;;18.75;12.70;;;;;;;-0.22;64.58;101790.59;4984015;27;20171;-70
2022/03/10 05:35:25;;;;;;;14.15;11.80;;;;;;;-0.26;64.70;101788.97;5019514;27;20021;-71
2022/03/10 05:37:51;;;;;;;15.15;12.55;;;;;;;-0.29;64.76;101791.66;4992636;27;20717;-70
2022/03/10 05:40:18;;;;;;;15.32;12.20;;;;;;;-0.30;64.79;101789.94;5016817;27;20017;-71
2022/03/10 05:42:44;;;;;;;17.23;12.80;;;;;;;-0.30;64.61;101795.13;5013600;27;20017;-72
2022/03/10 05:45:09;;;;;;;16.98;12.80;;;;;;;-0.27;64.41;101795.94;5015813;27;20855;-72
2022/03/10 05:47:35;;;;;;;18.98;12.95;;;;;;;-0.32;64.62;101797.78;4977923;27;20029;-71
2022/03/10 05:50:04;;;;;;;14.63;12.07;;;;;;;-0.35;64.58;101806.50;4985924;27;20892;-73
2022/03/10 05:52:29;;;;;;;17.00;12.75;;;;;;;-0.42;64.73;101785.94;5007159;27;20230;-73
2022/03/10 05:54:55;;;;;;;15.43;12.77;;;;;;;-0.40;64.85;101799.72;4990608;27;20490;-70
2022/03/10 05:57:20;;;;;;;16.50;12.93;;;;;;;-0.41;64.76;101798.00;5003108;27;20009;-70
2022/03/10 05:59:45;;;;;;;15.90;12.20;;;;;;;-0.42;65.06;101797.16;4985727;27;21016;-70
2022/03/10 06:02:11;;;;;;;17.95;12.23;;;;;;;-0.32;64.93;101792.59;5019322;27;20051;-70
2022/03/10 06:04:36;;;;;;;16.48;12.00;;;;;;;-0.35;65.07;101803.06;5021609;27;20637;-70
2022/03/10 06:07:03;;;;;;;20.08;12.55;;;;;;;-0.35;65.22;101790.91;5015891;27;20029;-70
2022/03/10 06:09:28;;;;;;;16.10;12.40;;;;;;;-0.36;64.97;101790.97;4997576;27;21475;-70
2022/03/10 06:11:54;;;;;;;17.02;13.93;;;;;;;-0.31;64.93;101793.44;5017307;27;20128;-70
2022/03/10 06:14:19;;;;;;;18.80;14.13;;;;;;;-0.41;65.28;101793.69;5017934;27;20032;-71
2022/03/10 06:16:45;;;;;;;18.63;13.70;;;;;;;-0.29;65.24;101802.91;4996293;27;20566;-70
2022/03/10 06:19:10;;;;;;;24.92;13.27;;;;;;;-0.01;64.23;101796.97;4994413;27;20033;-70
2022/03/10 06:21:37;;;;;;;18.45;13.05;;;;;;;0.12;63.93;101803.50;5020862;27;21690;-70
2022/03/10 06:24:02;;;;;;;17.42;12.82;;;;;;;-0.07;64.33;101803.19;4982029;27;20021;-71
2022/03/10 06:26:28;;;;;;;15.73;12.05;;;;;;;-0.26;65.00;101805.41;5019243;27;20052;-70
2022/03/10 06:28:53;;;;;;;16.63;12.45;;;;;;;-0.23;65.22;101820.94;5014041;27;21012;-70
2022/03/10 06:31:19;;;;;;;18.50;12.05;;;;;;;-0.22;65.48;101814.00;5015736;27;20021;-70
2022/03/10 06:33:45;;;;;;;14.18;11.82;;;;;;;-0.18;65.37;101810.44;5018759;27;20032;-70
2022/03/10 06:36:11;;;;;;;15.27;12.20;;;;;;;-0.17;65.11;101817.31;4994969;27;20997;-69
2022/03/10 06:38:36;;;;;;;15.73;12.15;;;;;;;-0.17;65.34;101814.72;5009446;27;20033;-71
2022/03/10 06:41:02;;;;;;;15.55;12.15;;;;;;;-0.10;65.04;101818.88;5016090;27;20037;-71
2022/03/10 06:43:27;;;;;;;15.25;12.02;;;;;;;-0.01;64.83;101822.97;5013327;27;20039;-69
2022/03/10 06:45:53;;;;;;;16.02;12.30;;;;;;;0.04;64.81;101822.84;5018541;27;20024;-70
2022/03/10 06:48:18;;;;;;;17.80;12.48;;;;;;;0.03;64.87;101821.13;5010100;27;20443;-71
2022/03/10 06:50:44;;;;;;;14.52;12.05;;;;;;;0.10;64.73;101822.66;4993988;27;21028;-70
2022/03/10 06:53:09;;;;;;;16.27;12.52;;;;;;;0.18;64.45;101825.91;5029615;27;20058;-70
2022/03/10 06:55:34;;;;;;;16.00;12.15;;;;;;;0.28;64.27;101831.72;5028552;27;20025;-69
2022/03/10 06:58:00;;;;;;;14.23;11.95;;;;;;;0.28;64.77;101829.97;5005835;27;20047;-70
2022/03/10 07:00:25;;;;;;;16.67;12.43;;;;;;;0.31;64.96;101824.69;5026061;27;20910;-70
2022/03/10 07:02:53;;;;;;;14.80;11.85;;;;;;;0.39;64.95;101834.84;5028969;27;20268;-70
2022/03/10 07:05:19;;;;;;;17.23;12.38;;;;;;;0.48;64.64;101831.13;5032478;27;20148;-72
2022/03/10 07:07:44;;;;;;;13.40;11.95;;;;;;;0.58;64.41;101832.59;5005466;28;20114;-71
2022/03/10 07:10:10;;;;;;;15.13;12.50;;;;;;;0.67;64.45;101827.09;4969241;27;20045;-72
2022/03/10 07:12:36;;;;;;;17.30;12.88;;;;;;;0.81;63.86;101834.47;4995901;28;20148;-70
2022/03/10 07:15:03;;;;;;;14.32;12.55;;;;;;;0.94;63.73;101834.13;4968574;28;20299;-72
2022/03/10 07:17:28;;;;;;;17.73;12.07;;;;;;;1.09;63.60;101835.41;4994980;28;21127;-70
2022/03/10 07:19:54;;;;;;;20.23;12.73;;;;;;;1.17;63.02;101838.59;4994321;28;20025;-70
2022/03/10 07:22:19;;;;;;;16.30;12.65;;;;;;;1.28;62.82;101831.28;4980111;28;20034;-70
2022/03/10 07:24:45;;;;;;;16.98;12.50;;;;;;;1.37;62.91;101830.97;4988022;28;20158;-70
2022/03/10 07:27:11;;;;;;;15.50;12.68;;;;;;;1.57;62.29;101826.84;4962357;28;20470;-72
2022/03/10 07:29:36;;;;;;;19.98;13.15;;;;;;;1.73;61.98;101831.56;4944698;28;20142;-71
2022/03/10 07:32:02;;;;;;;17.60;12.88;;;;;;;1.83;61.95;101830.31;4961942;28;20026;-71
2022/03/10 07:34:27;;;;;;;19.80;13.55;;;;;;;1.99;61.86;101828.88;4983070;28;20026;-69
2022/03/10 07:36:53;;;;;;;23.77;13.90;;;;;;;2.15;61.83;101826.56;4969371;28;20355;-71
2022/03/10 07:39:18;;;;;;;22.15;14.50;;;;;;;2.35;61.97;101832.81;4966444;28;20298;-71
2022/03/10 07:41:44;;;;;;;22.25;14.95;;;;;;;2.53;61.84;101842.59;4988461;28;20032;-71
2022/03/10 07:44:09;;;;;;;20.52;14.50;;;;;;;2.72;62.33;101834.03;4969102;28;20033;-71
2022/03/10 07:46:34;;;;;;;26.17;14.88;;;;;;;2.85;62.19;101837.91;4972804;28;20037;-70
2022/03/10 07:49:00;;;;;;;17.20;13.30;;;;;;;3.03;62.11;101836.34;4977809;28;20037;-70
2022/03/10 07:51:25;;;;;;;20.52;13.60;;;;;;;3.15;61.89;101836.75;4980000;28;20305;-69
2022/03/10 07:53:51;;;;;;;18.23;13.50;;;;;;;3.42;60.76;101838.22;4989549;28;20112;-69
2022/03/10 07:56:16;;;;;;;19.13;13.88;;;;;;;3.57;60.95;101838.53;4963246;28;20939;-70
2022/03/10 07:58:42;;;;;;;21.35;13.48;;;;;;;3.81;59.17;101831.38;4980636;28;20030;-70
2022/03/10 08:01:07;;;;;;;18.05;13.57;;;;;;;3.93;58.09;101832.59;4966550;28;20021;-70
2022/03/10 08:03:32;;;;;;;19.27;12.95;;;;;;;4.17;56.68;101835.06;4979612;28;20037;-70
2022/03/10 08:05:58;;;;;;;19.70;13.80;;;;;;;4.38;55.12;101833.25;4966216;28;20579;-71
2022/03/10 08:08:23;;;;;;;19.13;12.93;;;;;;;4.65;53.68;101833.75;4974974;28;20045;-70
2022/03/10 08:10:48;;;;;;;18.85;12.85;;;;;;;4.96;51.64;101834.94;4983169;27;21325;-71
2022/03/10 08:13:14;;;;;;;18.35;12.80;;;;;;;5.36;48.57;101833.00;4972027;27;20018;-71
2022/03/10 08:15:43;;;;;;;20.17;12.70;;;;;;;5.62;47.33;101826.44;4983666;28;20017;-71
2022/03/10 08:18:08;;;;;;;20.77;12.38;;;;;;;5.96;46.58;101836.97;4961316;28;20041;-71
2022/03/10 08:20:34;;;;;;;19.33;12.85;;;;;;;6.17;46.50;101830.63;4953690;28;20252;-70
2022/03/10 08:22:59;;;;;;;19.77;13.40;;;;;;;6.47;45.40;101832.56;5004398;28;20037;-71
2022/03/10 08:25:24;;;;;;;16.58;12.38;;;;;;;6.68;43.91;101824.41;5002412;28;20201;-70
2022/03/10 08:27:50;;;;;;;19.00;13.32;;;;;;;6.93;43.06;101823.06;4965217;28;20388;-70
2022/03/10 08:30:16;;;;;;;19.10;14.23;;;;;;;7.20;43.58;101826.72;4980736;28;20025;-71
2022/03/10 08:32:44;;;;;;;19.35;13.27;;;;;;;7.46;42.09;101816.50;4976214;28;20534;-71
2022/03/10 08:35:10;;;;;;;16.55;12.70;;;;;;;7.73;41.98;101819.28;4994214;28;20244;-71
2022/03/10 08:37:35;;;;;;;16.65;13.63;;;;;;;7.95;40.97;101812.69;4992647;28;20106;-71
2022/03/10 08:40:01;;;;;;;19.90;14.25;;;;;;;8.16;39.60;101807.06;4977272;28;20283;-71
2022/03/10 08:42:26;;;;;;;17.20;13.73;;;;;;;8.42;40.55;101795.72;5018828;28;20029;-71
2022/03/10 08:44:51;;;;;;;16.90;13.10;;;;;;;8.67;38.69;101791.56;5003333;28;20718;-71
2022/03/10 08:47:17;;;;;;;18.90;13.35;;;;;;;8.94;39.05;101791.56;5011675;28;20053;-70
2022/03/10 08:49:42;;;;;;;19.15;13.65;;;;;;;9.18;36.38;101790.91;5011301;28;20119;-71
2022/03/10 08:52:08;;;;;;;19.75;14.18;;;;;;;9.33;35.23;101798.75;5011949;28;20022;-71
2022/03/10 08:54:33;;;;;;;19.80;13.23;;;;;;;9.48;34.57;101788.97;4980025;27;20307;-71
2022/03/10 08:56:58;;;;;;;19.45;13.75;;;;;;;9.87;35.59;101805.66;5016183;27;20759;-71
2022/03/10 08:59:24;;;;;;;17.10;13.25;;;;;;;10.14;33.50;101806.38;4993835;27;20147;-71
2022/03/10 09:01:49;;;;;;;18.10;13.25;;;;;;;10.47;33.25;101799.69;4980794;27;20028;-71
2022/03/10 09:04:16;;;;;;;16.17;13.38;;;;;;;10.73;33.36;101791.69;4999461;27;20082;-72
2022/03/10 09:06:41;;;;;;;15.35;12.68;;;;;;;10.83;32.11;101797.97;4985149;27;20045;-71
2022/03/10 09:09:06;;;;;;;15.45;12.85;;;;;;;11.10;31.78;101796.91;5012173;27;20037;-71
2022/03/10 09:11:33;;;;;;;18.60;12.98;;;;;;;11.29;31.09;101792.88;5018769;27;20040;-71
2022/03/10 09:13:59;;;;;;;16.70;13.50;;;;;;;11.20;31.19;101786.47;4984506;27;20906;-70
2022/03/10 09:16:25;;;;;;;17.42;12.32;;;;;;;11.48;30.53;101793.16;5025093;27;20454;-71
2022/03/10 09:18:50;;;;;;;15.38;12.73;;;;;;;11.56;30.12;101781.97;4982133;27;20037;-71
2022/03/10 09:21:16;;;;;;;17.67;12.75;;;;;;;11.85;29.45;101777.06;5022441;27;20038;-72
2022/03/10 09:23:42;;;;;;;18.67;12.38;;;;;;;12.25;30.28;101778.41;5004471;27;20473;-72
2022/03/10 09:26:07;;;;;;;16.75;12.98;;;;;;;12.61;28.89;101771.13;5004799;27;20960;-71
2022/03/10 09:28:32;;;;;;;14.50;12.70;;;;;;;12.85;28.75;101764.78;4994454;27;20093;-72
2022/03/10 09:30:59;;;;;;;17.60;12.63;;;;;;;13.29;29.98;101768.19;4969935;27;20118;-71
2022/03/10 09:33:24;;;;;;;14.73;12.60;;;;;;;13.59;27.64;101769.22;5015696;27;20130;-71
2022/03/10 09:35:50;;;;;;;13.95;12.32;;;;;;;13.72;26.85;101769.88;5017716;27;20192;-72
2022/03/10 09:38:16;;;;;;;16.35;12.98;;;;;;;13.69;26.60;101775.47;4996394;27;20396;-73
2022/03/10 09:40:42;;;;;;;18.02;12.38;;;;;;;13.97;26.58;101773.06;5001539;27;20045;-73
2022/03/10 09:43:07;;;;;;;16.98;12.48;;;;;;;14.55;25.85;101769.75;5004009;27;20025;-72
2022/03/10 09:45:32;;;;;;;14.25;12.73;;;;;;;14.50;25.54;101776.47;4983986;27;20694;-71
2022/03/10 09:47:58;;;;;;;15.00;11.68;;;;;;;14.66;25.44;101763.47;4964002;27;20056;-72
2022/03/10 09:50:23;;;;;;;14.27;12.52;;;;;;;14.84;25.50;101771.63;4986031;27;21049;-71
2022/03/10 09:52:49;;;;;;;14.15;12.32;;;;;;;14.48;24.66;101771.28;5023461;27;20021;-72
2022/03/10 09:55:17;;;;;;;17.05;12.82;;;;;;;14.77;25.16;101757.16;5013306;27;20025;-72
2022/03/10 09:57:43;;;;;;;13.73;12.20;;;;;;;14.98;26.00;101758.88;4987830;27;20052;-71
2022/03/10 10:00:10;;;;;;;14.18;12.05;;;;;;;15.42;25.87;101765.38;4992340;27;20034;-73
2022/03/10 10:02:37;;;;;;;14.95;12.02;;;;;;;15.93;23.70;101759.78;4968459;27;20988;-73
2022/03/10 10:05:17;;;;;;;15.18;11.38;;;;;;;15.80;23.85;101758.28;5005063;27;20026;-73
2022/03/10 10:07:43;;;;;;;15.18;12.27;;;;;;;15.90;23.47;101763.59;4994330;27;20236;-72
2022/03/10 10:10:10;;;;;;;15.48;12.13;;;;;;;16.47;23.25;101765.28;4971753;27;20111;-72
2022/03/10 10:12:35;;;;;;;14.63;12.30;;;;;;;16.52;23.55;101751.47;4990316;27;20055;-71
2022/03/10 10:15:00;;;;;;;14.27;12.75;;;;;;;16.73;22.55;101749.34;4951690;27;20025;-72
2022/03/10 10:17:30;;;;;;;16.73;11.82;;;;;;;17.12;21.95;101742.88;4967621;27;20995;-72
2022/03/10 10:19:58;;;;;;;13.65;11.88;;;;;;;17.10;22.27;101747.50;4986996;27;20017;-72
2022/03/10 10:22:24;;;;;;;15.60;12.52;;;;;;;17.58;21.94;101748.00;4985253;27;20232;-72
2022/03/10 10:24:52;;;;;;;14.73;11.75;;;;;;;17.80;21.80;101743.94;4967782;27;20890;-71
2022/03/10 10:27:19;;;;;;;14.20;12.10;;;;;;;17.78;21.25;101744.09;4995537;27;20478;-72
2022/03/10 10:29:45;;;;;;;14.90;11.15;;;;;;;17.39;21.15;101739.19;5003784;27;20037;-71
2022/03/10 10:32:11;;;;;;;12.20;10.90;;;;;;;17.60;21.63;101738.81;5018811;27;20017;-71
2022/03/10 10:34:36;;;;;;;13.32;11.55;;;;;;;18.26;21.27;101740.97;5036019;27;20259;-72
2022/03/10 10:37:02;;;;;;;14.73;11.65;;;;;;;18.37;20.34;101735.28;5017815;27;20025;-73
2022/03/10 10:39:27;;;;;;;17.85;12.05;;;;;;;18.05;19.84;101728.00;5033312;27;20060;-72
2022/03/10 10:41:52;;;;;;;13.68;11.40;;;;;;;18.47;19.91;101738.69;5032350;27;20044;-72
2022/03/10 10:44:20;;;;;;;16.38;11.60;;;;;;;17.94;20.26;101726.47;5038244;27;20025;-72
2022/03/10 10:46:48;;;;;;;15.90;11.88;;;;;;;18.25;20.02;101723.22;5037450;27;20041;-72
2022/03/10 10:49:16;;;;;;;15.13;11.18;;;;;;;18.85;19.57;101722.97;5014985;27;21035;-72
2022/03/10 10:51:46;;;;;;;12.85;11.05;;;;;;;18.75;19.49;101719.59;5035636;27;20033;-73
2022/03/10 10:54:24;;;;;;;13.23;10.93;;;;;;;18.42;19.93;101729.47;5039441;27;20862;-72
2022/03/10 10:56:58;;;;;;;12.02;10.82;;;;;;;18.68;19.74;101723.94;5036696;27;20032;-73
2022/03/10 10:59:26;;;;;;;13.13;10.68;;;;;;;18.94;20.02;101718.47;5033694;27;20152;-73
2022/03/10 11:01:51;;;;;;;12.48;10.63;;;;;;;19.06;19.67;101716.28;5040348;27;20159;-72
2022/03/10 11:04:17;;;;;;;12.75;10.32;;;;;;;19.54;19.43;101719.03;4993756;27;20033;-73
2022/03/10 11:06:44;;;;;;;11.60;10.05;;;;;;;19.97;18.88;101718.75;5013525;27;20109;-73
2022/03/10 11:09:09;;;;;;;11.77;10.43;;;;;;;19.93;18.62;101715.56;5013043;27;20287;-72
2022/03/10 11:11:37;;;;;;;11.98;10.32;;;;;;;20.33;18.03;101718.22;5037246;27;20013;-74
2022/03/10 11:14:02;;;;;;;14.05;10.50;;;;;;;20.73;17.29;101702.84;5038744;27;20666;-72